Aviation Digital Data Service (ADDS)

Output produced by METARs form (1838 UTC 18 June 2019)
found at http://www.aviationweather.gov/metar/data/
 
KASJ 181820Z AUTO 21005KT 10SM SCT042 SCT050 SCT055 31/23 A2996 RMK AO2 T03090226
KVUJ 181820Z AUTO 19010KT 10SM SCT043 BKN065 BKN075 32/20 A3002 RMK AO2 LTG DSNT W AND NW T03210203
KRHP 181820Z AUTO 09003KT 4SM RA SCT014 BKN050 OVC070 20/20 A3005 RMK AO2 P0006 T01950195
KHBI 181820Z AUTO 19008KT 10SM SCT040 SCT049 30/20 A3000 RMK AO2 T03010204
KAVL 181754Z 15009KT 10SM BKN019 26/20 A3004 RMK AO2 SLP146 T02560200 10272 20200 58015
KAVL 181737Z 1818/1918 19008KT P6SM VCTS BKN019CB 
     FM182100 VRB15G25KT 4SM -TSRA BKN030CB 
     FM190000 VRB03KT P6SM VCTS BKN050CB 
     FM190300 22003KT 2SM BR OVC010 
     FM191400 VRB04KT P6SM BKN020
       
KMRH 181758Z AUTO 20013KT 10SM CLR 29/25 A3004 RMK AO2 LTG DSNT NW SLP171 T02940250 10294 20267 58008
KBUY 181754Z AUTO 20008KT 10SM SCT034 SCT044 31/21 A2999 RMK AO2 SLP146 T03110211 10317 20233 58013
KCLT 181752Z 22007KT 10SM FEW032 SCT060 BKN200 BKN250 30/21 A3000 RMK AO2 SLP147 TCU DSNT N-NE AND SE T03000206 10300 20250 58014
KCLT 181737Z 1818/1924 22008KT P6SM SCT030 BKN250 
     TEMPO 1822/1824 VRB15G25KT 4SM -TSRA BKN030CB 
     FM190000 VRB15G25KT 4SM -TSRA BKN030CB 
     FM190300 VRB03KT P6SM BKN050 
     FM191000 22003KT P6SM OVC010 
     FM191400 22005KT P6SM OVC020 
     FM192000 23008KT P6SM BKN040 
     PROB30 1920/1924 4SM -TSRA OVC025CB
       
KCTZ 181810Z AUTO 23006KT 10SM CLR 33/22 A2999 RMK AO2 T03270217
KJQF 181750Z 18006KT 10SM BKN039 29/21 A3003
KONX 181820Z AUTO 10SM SCT043 BKN050 32/23 A2996 RMK AO2 T03160229
KEDE 181820Z AUTO 24010KT 10SM CLR 33/23 A2999 RMK AO2 T03250232
KECG 181754Z 20013KT 10SM SCT045 32/22 A2997 RMK AO2 SLP150 T03220217 10328 20267 58011
KECG 181739Z 1818/1918 22010KT P6SM SCT040 
     FM190000 20011KT P6SM SCT050 
     FM191100 19005KT P6SM BKN035 
     FM191700 19006KT P6SM BKN060
       
KEYF 181820Z AUTO 19011G16KT 10SM SCT042 SCT050 SCT065 32/21 A2999 RMK AO2 T03250207
KHRJ 181815Z AUTO 19005KT 10SM SCT044 SCT050 SCT075 31/20 A2999 RMK AO2 T03130202
KFAY 181753Z 21008KT 10SM FEW045 FEW060 33/22 A2999 RMK AO2 SLP149 T03280217 10328 20250 58015
KFAY 181729Z 1818/1918 20009G16KT P6SM BKN040 
     FM182100 18009G16KT P6SM VCTS SCT035 BKN050CB 
     TEMPO 1822/1901 VRB20G34KT 2SM TSRA BR SCT018 OVC030CB 
     FM190400 17006KT P6SM BKN030 
     FM190600 18004KT P6SM OVC008 
     FM190800 18003KT 5SM BR OVC003 
     TEMPO 1909/1912 1 1/2SM BR VV002 
     FM191300 19004KT P6SM OVC012 
     FM191500 24007KT P6SM BKN030
       
K1A5 181820Z AUTO 00000KT 10SM SCT042 SCT050 BKN075 25/21 A3006 RMK AO2 T02510210
KAKH 181754Z AUTO VRB03KT 10SM BKN033 BKN046 29/21 A3000 RMK AO2 SLP148 T02940206 10300 20244 58015 $
KGWW 181825Z AUTO 20007KT 180V240 10SM SCT047 SCT060 SCT080 32/22 A2999 RMK AO2 T03190222
KGSO 181754Z 27008KT 10SM -RA BKN032CB OVC250 28/22 A3000 RMK AO2 RAB50 SLP147 CB W MOV NE TCU ALQDS P0000 60000 T02780222 10289 20217 58011
KGSO 181738Z 1818/1918 22007KT P6SM VCSH BKN025 
     TEMPO 1818/1820 VRB15G25KT 2SM TSRA BR SCT010 BKN018CB OVC040 
     FM182000 22009G16KT P6SM VCTS SCT020 BKN035CB 
     TEMPO 1820/1824 VRB18G32KT 2SM TSRA BR SCT007 OVC020CB 
     FM190000 22005KT P6SM VCSH BKN035 
     TEMPO 1900/1903 VRB18G32KT 2SM TSRA BR SCT009 OVC016CB 
     FM190700 18003KT P6SM VCSH OVC015 
     FM190830 19003KT P6SM OVC008 
     TEMPO 1909/1913 2SM BR OVC003
       
KPGV 181830Z AUTO 27006KT 10SM CLR 32/21 A3000 RMK AO2
KPGV 181731Z 1818/1918 22010G16KT P6SM SCT045 
     FM182100 17012G19KT P6SM VCTS SCT050CB 
     FM182300 18010KT P6SM BKN050 
     FM190900 14004KT P6SM SCT008 BKN015 
     FM191400 23005KT P6SM BKN060 AMD LTD TO CLD VIS AND WIND
       
KHSE 181751Z AUTO 21010KT 10SM CLR 29/25 A3004 RMK AO2 SLP170 T02890250 10294 20261 58008
KGEV 181825Z AUTO 29003KT 1 1/2SM +TSRA OVC010 21/19 A3009 RMK AO2 VIS 1/2V5 LTG DSNT SW AND W P0014 T02050194
KDPL 181820Z AUTO 22005KT 10SM SCT050 BKN065 BKN100 32/22 A2999 RMK AO2
KFFA 181820Z AUTO 10SM CLR 32/20 A2998 RMK AO2 T03240202
KISO 181756Z 23006KT 10SM SCT044 BKN060 BKN065 31/21 A3000
KISO 181731Z 1818/1918 22010G15KT P6SM VCTS SCT045CB 
     FM182300 18010KT P6SM BKN100 
     FM190900 VRB03KT P6SM SCT008 BKN020 
     FM191400 24005KT P6SM BKN070 AMD LTD TO CLD VIS AND WIND
       
KEXX 181820Z AUTO 20005KT 10SM SCT050 SCT070 SCT090 27/25 A2998 RMK AO2 T02710252
KIPJ 181825Z AUTO 24006KT 10SM SCT026 SCT032 SCT039 28/21 A3000 RMK AO2 T02780213
KLHZ 181820Z AUTO 20010KT 10SM SCT041 SCT055 BKN080 30/22 A3000 RMK AO2
KLBT 181722Z 1818/1918 18010G17KT P6SM SCT040 
     FM190000 17008KT P6SM SCT035 BKN250 
     FM190600 20004KT P6SM FEW020 BKN250 
     FM191400 23008KT P6SM SCT045 AMD NOT SKED
       
KMEB 181752Z AUTO 20006KT 10SM SCT048 32/21 A3000 RMK AO2 SLP155 T03170211 10328 20239 58016
KEQY 181753Z AUTO 21007KT 10SM FEW039 29/19 A2999 RMK AO2 SLP152 T02890189 10300 20244 58012
KMRN 181820Z AUTO 22006KT 10SM SCT020 SCT032 SCT042 27/20 A3003 RMK AO2 T02670197
KMWK 181820Z AUTO 17003KT 10SM BKN021 BKN037 BKN050 27/24 A3002 RMK AO2 T02740235
KEWN 181834Z 16005KT 10SM FEW037 29/25 A3001 RMK AO2 RAE23 TSE28 P0001 T02890250
KEWN 181731Z 1818/1918 20009G16KT P6SM SCT045 
     FM190000 19009G15KT P6SM BKN220 
     FM190700 VRB03KT P6SM SCT008 BKN030 
     FM191200 22004KT P6SM SCT008 BKN016 
     FM191400 24005KT P6SM BKN070
       
KUKF 181820Z AUTO 17006KT 10SM CLR 26/22 A3004 RMK AO2 LTG DSNT ALQS
KSUT 181820Z AUTO 16008KT 130V190 10SM SCT019 30/23 A3003 RMK AO2 T02970226
KHNZ 181820Z AUTO 20009KT 10SM SCT036 SCT044 29/21 A2996 RMK AO2 T02870209
KSOP 181756Z AUTO 21010KT 10SM FEW043 BKN060 BKN070 32/21 A3000 RMK AO2 SLP168 T03170211 10322 20250 58013 PWINO $
KRDU 181751Z 22014G18KT 10SM SCT040TCU BKN250 31/21 A2999 RMK AO2 SLP150 TCU NE-E AND W-NW T03110211 10317 20239 58012
KRDU 181729Z 1818/1918 22008G16KT P6SM BKN040 
     FM182000 20008KT P6SM VCTS SCT025 BKN040CB 
     TEMPO 1822/1902 VRB15G32KT 2SM TSRA BR SCT030CB BKN050 
     FM190400 20004KT P6SM BKN025 
     FM190600 19003KT P6SM OVC010 
     FM190800 19003KT P6SM OVC006 
     TEMPO 1908/1912 3SM BR OVC005 
     FM191330 21004KT P6SM OVC010 
     FM191500 24006KT P6SM OVC025
       
KSIF 181820Z AUTO 10SM SCT026 BKN033 28/22 A2998 RMK AO2 T02810217
KIXA 181825Z AUTO 23007G15KT 10SM SCT041 SCT050 SCT070 31/25 A2995 RMK AO2
KRCZ 181820Z AUTO 20007KT 10SM SCT047 SCT055 31/16 A2998 RMK AO2 T03100159
KRWI 181753Z AUTO 20010G14KT 10SM FEW043 32/22 A2999 RMK AO2 SLP155 T03170222 10322 20250 58011
KRWI 181729Z 1818/1918 21010G16KT P6SM SCT040 
     FM182200 19007KT P6SM VCTS BKN035CB 
     FM190400 18006KT P6SM BKN060 
     FM190600 19005KT P6SM OVC015 
     FM190900 18003KT P6SM OVC008 
     TEMPO 1909/1912 2SM BR OVC004 
     FM191600 23006KT P6SM BKN020
       
KTDF 181820Z AUTO 23006KT 10SM SCT034 SCT055 SCT110 27/23 A2999 RMK AO2
KFQD 181820Z AUTO 00000KT 10SM SCT022 BKN027 BKN035 27/21 A3001 RMK AO2
KRUQ 181820Z AUTO 20004KT 10SM SCT031 BKN038 BKN046 28/22 A2998 RMK AO2 T02780219
KTTA 181820Z AUTO 16006KT 10SM CLR 32/21 A2997 RMK AO2 T03170205
KEHO 181820Z AUTO 19005KT 10SM SCT026 SCT031 28/22 A2999 RMK AO2 T02810216
KJNX 181820Z AUTO 22005KT 10SM SCT046 31/21 A2998 RMK AO2 LTG DSNT E
KSVH 181820Z AUTO 10SM BKN025 BKN031 BKN037 28/23 A2998 RMK AO2 T02780225
K24A 181820Z AUTO 24004KT 10SM -RA SCT047 BKN070 OVC085 21/20 A3008 RMK AO2 LTG DSNT SE THRU NW T02110198
KETC 181820Z AUTO 19006KT 10SM SCT047 BKN055 32/21 A2997 RMK AO2 PWINO T03160213
KAFP 181820Z AUTO 15006KT 7SM CLR 31/20 A2998 RMK AO2 T03100197
KOCW 181820Z AUTO 24006KT 10SM SCT043 SCT050 33/21 A3000 RMK AO2 T03270212
KCPC 181820Z AUTO 17009G14KT 10SM SCT043 32/21 A2999 RMK AO2 T03200207
KILM 181753Z 19010KT 10SM SCT041 31/21 A3002 RMK AO2 SLP164 T03110211 10328 20267 58010
KILM 181722Z 1818/1918 18011G17KT P6SM SCT040 
     FM190000 17009KT P6SM SCT020 SCT250 
     FM190300 19005KT P6SM BKN020 BKN250 
     FM190900 25006KT P6SM SCT040 
     FM191500 22009KT P6SM SCT100
       
KINT 181818Z VRB05KT 10SM SCT029 BKN055 29/21 A2999 RMK AO2 T02890211
KINT 181729Z 1818/1918 22007KT P6SM VCSH BKN025 
     TEMPO 1820/1824 VRB18G32KT 2SM TSRA BR SCT007 OVC020CB 
     FM190000 22005KT P6SM VCSH BKN035 
     TEMPO 1900/1903 VRB18G32KT 2SM TSRA BR SCT009 OVC016CB 
     FM190700 18003KT P6SM VCSH OVC015 
     FM190830 19003KT P6SM OVC008 
     TEMPO 1909/1913 2SM BR OVC003